sensor_id;sensor_type;location;lat;lon;timestamp;pressure;altitude;pressure_sealevel;temperature;humidity
37132;BME280;23035;50.032;21.978;2023-05-09T00:03:23;65715.13;;;5.13;100.00
37132;BME280;23035;50.032;21.978;2023-05-09T00:08:27;65747.47;;;5.52;100.00
37132;BME280;23035;50.032;21.978;2023-05-09T00:13:32;65758.03;;;5.59;100.00
37132;BME280;23035;50.032;21.978;2023-05-09T00:18:38;65740.97;;;5.43;100.00
37132;BME280;23035;50.032;21.978;2023-05-09T00:23:43;65676.34;;;4.81;100.00
37132;BME280;23035;50.032;21.978;2023-05-09T00:28:47;65673.59;;;4.76;100.00
37132;BME280;23035;50.032;21.978;2023-05-09T00:33:54;65688.63;;;4.93;100.00
37132;BME280;23035;50.032;21.978;2023-05-09T00:38:58;65688.09;;;4.93;100.00
37132;BME280;23035;50.032;21.978;2023-05-09T00:44:02;65703.78;;;5.12;100.00
37132;BME280;23035;50.032;21.978;2023-05-09T00:49:07;65710.72;;;5.19;100.00
37132;BME280;23035;50.032;21.978;2023-05-09T00:54:11;65716.50;;;5.22;100.00
37132;BME280;23035;50.032;21.978;2023-05-09T00:59:15;65693.63;;;5.03;100.00
37132;BME280;23035;50.032;21.978;2023-05-09T01:04:21;65688.19;;;4.95;100.00
37132;BME280;23035;50.032;21.978;2023-05-09T01:09:32;65701.09;;;5.10;100.00
37132;BME280;23035;50.032;21.978;2023-05-09T01:14:44;65679.03;;;4.84;100.00
37132;BME280;23035;50.032;21.978;2023-05-09T01:20:00;65626.72;;;4.34;100.00
37132;BME280;23035;50.032;21.978;2023-05-09T01:25:33;65601.00;;;4.07;100.00
37132;BME280;23035;50.032;21.978;2023-05-09T01:30:41;65645.94;;;4.52;100.00
37132;BME280;23035;50.032;21.978;2023-05-09T01:35:50;65622.13;;;4.35;100.00
37132;BME280;23035;50.032;21.978;2023-05-09T01:40:55;65710.63;;;5.16;100.00
37132;BME280;23035;50.032;21.978;2023-05-09T01:46:04;65687.66;;;4.95;100.00
37132;BME280;23035;50.032;21.978;2023-05-09T01:51:10;65714.78;;;5.18;100.00
37132;BME280;23035;50.032;21.978;2023-05-09T01:56:16;65730.38;;;5.35;100.00
37132;BME280;23035;50.032;21.978;2023-05-09T02:01:23;65723.34;;;5.26;100.00
37132;BME280;23035;50.032;21.978;2023-05-09T02:06:27;65666.75;;;4.72;100.00
37132;BME280;23035;50.032;21.978;2023-05-09T02:11:32;65654.47;;;4.60;100.00
37132;BME280;23035;50.032;21.978;2023-05-09T02:16:38;65611.00;;;4.26;100.00
37132;BME280;23035;50.032;21.978;2023-05-09T02:21:42;65622.00;;;4.32;100.00
37132;BME280;23035;50.032;21.978;2023-05-09T02:26:46;65624.03;;;4.31;100.00
37132;BME280;23035;50.032;21.978;2023-05-09T02:31:52;65609.84;;;4.23;100.00
37132;BME280;23035;50.032;21.978;2023-05-09T02:36:56;65645.59;;;4.57;100.00
37132;BME280;23035;50.032;21.978;2023-05-09T02:42:08;65607.50;;;4.16;100.00
37132;BME280;23035;50.032;21.978;2023-05-09T02:47:14;65661.06;;;4.72;100.00
37132;BME280;23035;50.032;21.978;2023-05-09T02:52:18;65704.66;;;5.08;100.00
37132;BME280;23035;50.032;21.978;2023-05-09T02:57:22;65709.56;;;5.15;100.00
37132;BME280;23035;50.032;21.978;2023-05-09T03:02:29;65679.66;;;4.87;100.00
37132;BME280;23035;50.032;21.978;2023-05-09T03:07:36;65687.13;;;4.94;100.00
37132;BME280;23035;50.032;21.978;2023-05-09T03:12:44;65685.94;;;4.90;100.00
37132;BME280;23035;50.032;21.978;2023-05-09T03:17:53;65707.88;;;5.11;100.00
37132;BME280;23035;50.032;21.978;2023-05-09T03:22:59;65654.66;;;4.66;100.00
37132;BME280;23035;50.032;21.978;2023-05-09T03:28:04;65675.28;;;4.80;100.00
37132;BME280;23035;50.032;21.978;2023-05-09T03:33:12;65674.41;;;4.84;100.00
37132;BME280;23035;50.032;21.978;2023-05-09T03:38:17;65715.44;;;5.21;100.00
37132;BME280;23035;50.032;21.978;2023-05-09T03:43:25;65798.66;;;5.98;100.00
37132;BME280;23035;50.032;21.978;2023-05-09T03:48:34;65794.41;;;5.94;100.00
37132;BME280;23035;50.032;21.978;2023-05-09T03:53:45;65774.16;;;5.77;100.00
37132;BME280;23035;50.032;21.978;2023-05-09T03:58:52;65760.28;;;5.64;100.00
37132;BME280;23035;50.032;21.978;2023-05-09T04:04:01;65727.81;;;5.35;100.00
37132;BME280;23035;50.032;21.978;2023-05-09T04:09:11;65705.81;;;5.12;100.00
37132;BME280;23035;50.032;21.978;2023-05-09T04:14:19;65733.50;;;5.36;100.00
37132;BME280;23035;50.032;21.978;2023-05-09T04:19:29;65785.53;;;5.90;100.00
37132;BME280;23035;50.032;21.978;2023-05-09T04:24:36;65824.50;;;6.27;100.00
37132;BME280;23035;50.032;21.978;2023-05-09T04:29:43;65832.88;;;6.30;100.00
37132;BME280;23035;50.032;21.978;2023-05-09T04:34:52;65869.75;;;6.66;100.00
37132;BME280;23035;50.032;21.978;2023-05-09T04:40:02;65791.06;;;5.88;100.00
37132;BME280;23035;50.032;21.978;2023-05-09T04:45:16;65834.13;;;6.37;100.00
37132;BME280;23035;50.032;21.978;2023-05-09T04:50:24;65877.25;;;6.73;100.00
37132;BME280;23035;50.032;21.978;2023-05-09T04:55:29;65928.69;;;7.24;100.00
37132;BME280;23035;50.032;21.978;2023-05-09T05:00:36;65943.66;;;7.38;100.00
37132;BME280;23035;50.032;21.978;2023-05-09T05:05:45;65945.34;;;7.42;100.00
37132;BME280;23035;50.032;21.978;2023-05-09T05:10:51;65988.59;;;7.81;100.00
37132;BME280;23035;50.032;21.978;2023-05-09T05:15:58;66109.53;;;8.94;100.00
37132;BME280;23035;50.032;21.978;2023-05-09T05:21:06;66234.03;;;10.17;100.00
37132;BME280;23035;50.032;21.978;2023-05-09T05:26:13;66196.41;;;9.78;100.00
37132;BME280;23035;50.032;21.978;2023-05-09T05:31:21;66082.13;;;8.65;100.00
37132;BME280;23035;50.032;21.978;2023-05-09T05:36:30;66021.69;;;8.10;100.00
37132;BME280;23035;50.032;21.978;2023-05-09T05:41:37;66096.66;;;8.81;100.00
37132;BME280;23035;50.032;21.978;2023-05-09T05:46:43;66190.97;;;9.71;100.00
37132;BME280;23035;50.032;21.978;2023-05-09T05:51:49;66168.91;;;9.47;100.00
37132;BME280;23035;50.032;21.978;2023-05-09T05:56:57;66271.03;;;10.52;100.00
37132;BME280;23035;50.032;21.978;2023-05-09T06:02:02;66300.53;;;10.80;98.17
37132;BME280;23035;50.032;21.978;2023-05-09T06:07:12;66233.50;;;10.16;100.00
37132;BME280;23035;50.032;21.978;2023-05-09T06:12:19;66270.41;;;10.49;96.71
37132;BME280;23035;50.032;21.978;2023-05-09T06:17:27;66369.03;;;11.40;92.10
37132;BME280;23035;50.032;21.978;2023-05-09T06:22:36;66448.50;;;12.15;86.04
37132;BME280;23035;50.032;21.978;2023-05-09T06:27:43;66458.88;;;12.30;83.63
37132;BME280;23035;50.032;21.978;2023-05-09T06:32:50;66595.22;;;13.54;75.68
37132;BME280;23035;50.032;21.978;2023-05-09T06:37:56;66527.56;;;12.92;70.44
37132;BME280;23035;50.032;21.978;2023-05-09T06:43:01;66426.75;;;12.02;73.79
37132;BME280;23035;50.032;21.978;2023-05-09T06:48:05;66375.19;;;11.53;76.56
37132;BME280;23035;50.032;21.978;2023-05-09T06:53:10;66468.00;;;12.39;73.37
37132;BME280;23035;50.032;21.978;2023-05-09T06:58:18;66437.31;;;12.07;75.59
37132;BME280;23035;50.032;21.978;2023-05-09T07:03:22;66527.47;;;12.90;67.70
37132;BME280;23035;50.032;21.978;2023-05-09T07:08:30;66502.38;;;12.71;67.51
37132;BME280;23035;50.032;21.978;2023-05-09T07:13:35;66512.13;;;12.83;65.15
37132;BME280;23035;50.032;21.978;2023-05-09T07:18:41;66529.16;;;12.94;66.68
37132;BME280;23035;50.032;21.978;2023-05-09T07:23:48;66525.56;;;12.96;67.10
37132;BME280;23035;50.032;21.978;2023-05-09T07:28:55;66562.50;;;13.26;64.04
37132;BME280;23035;50.032;21.978;2023-05-09T07:34:00;66558.75;;;13.22;67.32
37132;BME280;23035;50.032;21.978;2023-05-09T07:39:08;66496.94;;;12.63;66.32
37132;BME280;23035;50.032;21.978;2023-05-09T07:44:12;66548.44;;;13.10;63.63
37132;BME280;23035;50.032;21.978;2023-05-09T07:49:17;66489.94;;;12.57;62.59
37132;BME280;23035;50.032;21.978;2023-05-09T07:54:26;66487.81;;;12.55;63.17
37132;BME280;23035;50.032;21.978;2023-05-09T07:59:33;66522.09;;;12.85;66.06
37132;BME280;23035;50.032;21.978;2023-05-09T08:04:40;66545.91;;;13.12;59.77
37132;BME280;23035;50.032;21.978;2023-05-09T08:09:48;66543.13;;;13.07;59.19
37132;BME280;23035;50.032;21.978;2023-05-09T08:14:53;66587.84;;;13.52;61.62
37132;BME280;23035;50.032;21.978;2023-05-09T08:19:59;66616.28;;;13.76;51.77
37132;BME280;23035;50.032;21.978;2023-05-09T08:25:08;66610.28;;;13.68;52.33
37132;BME280;23035;50.032;21.978;2023-05-09T08:30:18;66491.66;;;12.61;55.03
37132;BME280;23035;50.032;21.978;2023-05-09T08:35:25;66514.22;;;12.82;55.42
37132;BME280;23035;50.032;21.978;2023-05-09T08:40:36;66550.19;;;13.16;54.50
37132;BME280;23035;50.032;21.978;2023-05-09T08:45:50;66555.06;;;13.21;55.24
37132;BME280;23035;50.032;21.978;2023-05-09T08:50:56;66476.53;;;12.44;57.91
37132;BME280;23035;50.032;21.978;2023-05-09T08:56:03;66517.28;;;12.80;57.29
37132;BME280;23035;50.032;21.978;2023-05-09T09:01:11;66547.50;;;13.14;57.12
37132;BME280;23035;50.032;21.978;2023-05-09T09:06:18;66609.34;;;13.72;56.07
37132;BME280;23035;50.032;21.978;2023-05-09T09:11:25;66614.72;;;13.77;53.31
37132;BME280;23035;50.032;21.978;2023-05-09T09:16:32;66647.06;;;14.11;50.10
37132;BME280;23035;50.032;21.978;2023-05-09T09:21:40;66634.53;;;13.94;50.80
37132;BME280;23035;50.032;21.978;2023-05-09T09:26:50;66619.09;;;13.84;52.93
37132;BME280;23035;50.032;21.978;2023-05-09T09:32:01;66756.75;;;15.12;50.92
37132;BME280;23035;50.032;21.978;2023-05-09T09:37:06;66741.06;;;14.95;47.09
37132;BME280;23035;50.032;21.978;2023-05-09T09:42:12;66769.03;;;15.21;49.64
37132;BME280;23035;50.032;21.978;2023-05-09T09:47:18;66712.69;;;14.73;50.99
37132;BME280;23035;50.032;21.978;2023-05-09T09:52:24;66680.78;;;14.38;51.42
37132;BME280;23035;50.032;21.978;2023-05-09T09:57:36;66642.00;;;13.98;50.42
37132;BME280;23035;50.032;21.978;2023-05-09T10:02:49;66769.50;;;15.19;49.14
37132;BME280;23035;50.032;21.978;2023-05-09T10:07:55;66801.44;;;15.54;44.50
37132;BME280;23035;50.032;21.978;2023-05-09T10:13:03;66771.28;;;15.26;44.79
37132;BME280;23035;50.032;21.978;2023-05-09T10:18:09;66685.16;;;14.44;46.25
37132;BME280;23035;50.032;21.978;2023-05-09T10:23:17;66738.38;;;14.92;45.33
37132;BME280;23035;50.032;21.978;2023-05-09T10:28:27;66715.84;;;14.73;44.44
37132;BME280;23035;50.032;21.978;2023-05-09T10:33:47;66738.47;;;14.95;42.36
37132;BME280;23035;50.032;21.978;2023-05-09T10:38:54;66744.28;;;14.98;44.28
37132;BME280;23035;50.032;21.978;2023-05-09T10:44:00;66747.13;;;15.05;43.82
37132;BME280;23035;50.032;21.978;2023-05-09T10:49:06;66810.50;;;15.60;42.66
37132;BME280;23035;50.032;21.978;2023-05-09T10:54:13;66842.28;;;15.90;42.57
37132;BME280;23035;50.032;21.978;2023-05-09T10:59:34;66868.03;;;16.12;42.69
37132;BME280;23035;50.032;21.978;2023-05-09T11:04:40;66906.38;;;16.51;40.22
37132;BME280;23035;50.032;21.978;2023-05-09T11:09:50;66903.13;;;16.48;40.63
37132;BME280;23035;50.032;21.978;2023-05-09T11:15:04;66890.06;;;16.30;39.34
37132;BME280;23035;50.032;21.978;2023-05-09T11:20:11;66841.28;;;15.92;41.03
37132;BME280;23035;50.032;21.978;2023-05-09T11:25:24;66846.59;;;15.94;38.77
37132;BME280;23035;50.032;21.978;2023-05-09T11:30:40;66947.97;;;16.92;37.03
37132;BME280;23035;50.032;21.978;2023-05-09T11:36:14;66878.38;;;16.24;40.49
37132;BME280;23035;50.032;21.978;2023-05-09T11:41:21;66965.81;;;17.12;35.43
37132;BME280;23035;50.032;21.978;2023-05-09T11:46:30;66953.28;;;16.95;36.47
37132;BME280;23035;50.032;21.978;2023-05-09T11:51:38;67103.09;;;18.34;34.93
37132;BME280;23035;50.032;21.978;2023-05-09T11:56:46;67316.59;;;20.43;33.50
37132;BME280;23035;50.032;21.978;2023-05-09T12:01:53;67231.72;;;19.60;32.68
37132;BME280;23035;50.032;21.978;2023-05-09T12:06:57;67152.28;;;18.83;33.15
37132;BME280;23035;50.032;21.978;2023-05-09T12:12:13;67124.69;;;18.54;32.39
37132;BME280;23035;50.032;21.978;2023-05-09T12:17:26;67148.97;;;18.77;31.75
37132;BME280;23035;50.032;21.978;2023-05-09T12:22:35;67067.09;;;18.05;32.64
37132;BME280;23035;50.032;21.978;2023-05-09T12:27:43;67067.09;;;18.05;34.37
37132;BME280;23035;50.032;21.978;2023-05-09T12:32:50;67056.78;;;17.93;33.72
37132;BME280;23035;50.032;21.978;2023-05-09T12:37:57;67216.03;;;19.45;32.19
37132;BME280;23035;50.032;21.978;2023-05-09T12:43:06;67218.22;;;19.47;31.35
37132;BME280;23035;50.032;21.978;2023-05-09T12:48:13;67129.63;;;18.61;31.75
37132;BME280;23035;50.032;21.978;2023-05-09T12:53:24;67162.53;;;18.92;31.83
37132;BME280;23035;50.032;21.978;2023-05-09T12:58:31;67292.22;;;20.17;30.50
37132;BME280;23035;50.032;21.978;2023-05-09T13:03:37;67234.97;;;19.63;30.12
37132;BME280;23035;50.032;21.978;2023-05-09T13:08:55;67151.81;;;18.85;30.92
37132;BME280;23035;50.032;21.978;2023-05-09T13:14:02;67092.38;;;18.26;31.67
37132;BME280;23035;50.032;21.978;2023-05-09T13:19:12;67187.84;;;19.14;30.96
37132;BME280;23035;50.032;21.978;2023-05-09T13:24:19;67237.13;;;19.65;30.60
37132;BME280;23035;50.032;21.978;2023-05-09T13:29:26;67165.25;;;18.95;31.21
37132;BME280;23035;50.032;21.978;2023-05-09T13:34:34;67289.91;;;20.10;29.77
37132;BME280;23035;50.032;21.978;2023-05-09T13:39:41;67291.13;;;20.16;28.74
37132;BME280;23035;50.032;21.978;2023-05-09T13:44:49;67365.56;;;20.81;28.26
37132;BME280;23035;50.032;21.978;2023-05-09T13:49:57;67257.50;;;19.80;29.14
37132;BME280;23035;50.032;21.978;2023-05-09T13:55:03;67294.84;;;20.17;29.29
37132;BME280;23035;50.032;21.978;2023-05-09T14:00:11;67293.28;;;20.18;28.62
37132;BME280;23035;50.032;21.978;2023-05-09T14:05:20;67320.16;;;20.39;28.65
37132;BME280;23035;50.032;21.978;2023-05-09T14:10:25;67185.22;;;19.14;29.87
37132;BME280;23035;50.032;21.978;2023-05-09T14:15:30;67200.88;;;19.29;30.30
37132;BME280;23035;50.032;21.978;2023-05-09T14:20:39;67370.56;;;20.91;28.57
37132;BME280;23035;50.032;21.978;2023-05-09T14:25:46;67097.72;;;18.29;31.43
37132;BME280;23035;50.032;21.978;2023-05-09T14:30:51;67104.88;;;18.41;31.64
37132;BME280;23035;50.032;21.978;2023-05-09T14:35:59;67180.38;;;19.09;30.65
37132;BME280;23035;50.032;21.978;2023-05-09T14:41:05;67189.59;;;19.20;30.13
37132;BME280;23035;50.032;21.978;2023-05-09T14:46:12;67026.03;;;17.64;31.91
37132;BME280;23035;50.032;21.978;2023-05-09T14:51:18;67158.84;;;18.91;30.66
37132;BME280;23035;50.032;21.978;2023-05-09T14:56:23;67077.22;;;18.10;31.31
37132;BME280;23035;50.032;21.978;2023-05-09T15:01:29;66958.59;;;16.98;33.33
37132;BME280;23035;50.032;21.978;2023-05-09T15:06:38;67049.19;;;17.83;32.59
37132;BME280;23035;50.032;21.978;2023-05-09T15:11:43;67268.31;;;19.90;29.69
37132;BME280;23035;50.032;21.978;2023-05-09T15:16:51;67167.53;;;19.02;30.36
37132;BME280;23035;50.032;21.978;2023-05-09T15:22:01;67126.44;;;18.61;30.04
37132;BME280;23035;50.032;21.978;2023-05-09T15:27:06;67179.34;;;19.11;29.77
37132;BME280;23035;50.032;21.978;2023-05-09T15:32:11;67213.28;;;19.40;30.21
37132;BME280;23035;50.032;21.978;2023-05-09T15:37:19;67230.59;;;19.57;28.97
37132;BME280;23035;50.032;21.978;2023-05-09T15:42:24;67112.88;;;18.46;29.93
37132;BME280;23035;50.032;21.978;2023-05-09T15:47:28;67205.72;;;19.33;28.73
37132;BME280;23035;50.032;21.978;2023-05-09T15:52:34;67180.81;;;19.07;29.07
37132;BME280;23035;50.032;21.978;2023-05-09T15:57:38;67128.53;;;18.60;30.82
37132;BME280;23035;50.032;21.978;2023-05-09T16:02:42;66950.59;;;16.92;32.55
37132;BME280;23035;50.032;21.978;2023-05-09T16:07:48;66907.47;;;16.52;33.72
37132;BME280;23035;50.032;21.978;2023-05-09T16:12:54;66828.88;;;15.80;34.50
37132;BME280;23035;50.032;21.978;2023-05-09T16:17:59;66737.81;;;14.91;36.42
37132;BME280;23035;50.032;21.978;2023-05-09T16:23:04;66750.06;;;14.98;35.64
37132;BME280;23035;50.032;21.978;2023-05-09T16:28:09;66725.47;;;14.80;36.45
37132;BME280;23035;50.032;21.978;2023-05-09T16:33:13;66673.78;;;14.31;38.17
37132;BME280;23035;50.032;21.978;2023-05-09T16:38:18;66701.63;;;14.52;36.59
37132;BME280;23035;50.032;21.978;2023-05-09T16:43:23;66660.88;;;14.19;36.69
37132;BME280;23035;50.032;21.978;2023-05-09T16:48:28;66688.88;;;14.45;36.50
37132;BME280;23035;50.032;21.978;2023-05-09T16:53:33;66638.31;;;13.97;37.67
37132;BME280;23035;50.032;21.978;2023-05-09T16:58:38;66676.56;;;14.36;37.62
37132;BME280;23035;50.032;21.978;2023-05-09T17:03:42;66681.25;;;14.35;38.20
37132;BME280;23035;50.032;21.978;2023-05-09T17:08:48;66689.44;;;14.46;37.38
37132;BME280;23035;50.032;21.978;2023-05-09T17:13:52;66689.97;;;14.46;37.37
37132;BME280;23035;50.032;21.978;2023-05-09T17:18:56;66671.03;;;14.26;37.36
37132;BME280;23035;50.032;21.978;2023-05-09T17:24:02;66644.69;;;14.01;37.43
37132;BME280;23035;50.032;21.978;2023-05-09T17:29:06;66649.50;;;14.05;38.05
37132;BME280;23035;50.032;21.978;2023-05-09T17:34:10;66649.44;;;14.03;38.30
37132;BME280;23035;50.032;21.978;2023-05-09T17:39:15;66651.22;;;14.10;38.04
37132;BME280;23035;50.032;21.978;2023-05-09T17:44:19;66609.88;;;13.73;38.44
37132;BME280;23035;50.032;21.978;2023-05-09T17:49:24;66602.28;;;13.63;39.05
37132;BME280;23035;50.032;21.978;2023-05-09T17:54:29;66614.19;;;13.77;39.00
37132;BME280;23035;50.032;21.978;2023-05-09T17:59:33;66586.59;;;13.46;38.97
37132;BME280;23035;50.032;21.978;2023-05-09T18:04:37;66579.63;;;13.39;39.67
37132;BME280;23035;50.032;21.978;2023-05-09T18:09:42;66592.59;;;13.54;39.36
37132;BME280;23035;50.032;21.978;2023-05-09T18:14:46;66620.03;;;13.80;39.42
37132;BME280;23035;50.032;21.978;2023-05-09T18:19:50;66600.59;;;13.59;39.72
37132;BME280;23035;50.032;21.978;2023-05-09T18:24:56;66527.03;;;12.92;41.55
37132;BME280;23035;50.032;21.978;2023-05-09T18:30:00;66547.44;;;13.11;41.53
37132;BME280;23035;50.032;21.978;2023-05-09T18:35:06;66506.59;;;12.73;42.65
37132;BME280;23035;50.032;21.978;2023-05-09T18:40:12;66517.19;;;12.78;42.87
37132;BME280;23035;50.032;21.978;2023-05-09T18:45:17;66495.69;;;12.57;43.10
37132;BME280;23035;50.032;21.978;2023-05-09T18:50:21;66488.88;;;12.56;43.35
37132;BME280;23035;50.032;21.978;2023-05-09T18:55:27;66469.00;;;12.37;43.68
37132;BME280;23035;50.032;21.978;2023-05-09T19:00:31;66483.50;;;12.51;42.95
37132;BME280;23035;50.032;21.978;2023-05-09T19:05:35;66473.78;;;12.39;43.34
37132;BME280;23035;50.032;21.978;2023-05-09T19:10:41;66466.94;;;12.38;43.64
37132;BME280;23035;50.032;21.978;2023-05-09T19:15:46;66408.69;;;11.75;44.54
37132;BME280;23035;50.032;21.978;2023-05-09T19:20:50;66428.09;;;11.96;44.70
37132;BME280;23035;50.032;21.978;2023-05-09T19:25:55;66423.28;;;11.91;44.91
37132;BME280;23035;50.032;21.978;2023-05-09T19:30:59;66413.16;;;11.84;45.43
37132;BME280;23035;50.032;21.978;2023-05-09T19:36:03;66428.66;;;11.96;45.42
37132;BME280;23035;50.032;21.978;2023-05-09T19:41:09;66388.47;;;11.61;45.43
37132;BME280;23035;50.032;21.978;2023-05-09T19:46:15;66342.28;;;11.17;47.35
37132;BME280;23035;50.032;21.978;2023-05-09T19:51:28;66352.50;;;11.27;46.96
37132;BME280;23035;50.032;21.978;2023-05-09T19:56:34;66341.84;;;11.19;46.90
37132;BME280;23035;50.032;21.978;2023-05-09T20:01:38;66305.72;;;10.80;48.10
37132;BME280;23035;50.032;21.978;2023-05-09T20:06:42;66343.91;;;11.18;47.40
37132;BME280;23035;50.032;21.978;2023-05-09T20:11:49;66332.72;;;11.10;47.18
37132;BME280;23035;50.032;21.978;2023-05-09T20:16:53;66318.53;;;10.89;48.07
37132;BME280;23035;50.032;21.978;2023-05-09T20:21:57;66322.44;;;10.98;48.57
37132;BME280;23035;50.032;21.978;2023-05-09T20:27:02;66325.13;;;11.01;48.13
37132;BME280;23035;50.032;21.978;2023-05-09T20:32:06;66341.75;;;11.16;48.88
37132;BME280;23035;50.032;21.978;2023-05-09T20:37:12;66307.97;;;10.84;49.13
37132;BME280;23035;50.032;21.978;2023-05-09T20:42:17;66320.22;;;10.94;48.57
37132;BME280;23035;50.032;21.978;2023-05-09T20:47:21;66324.06;;;11.00;49.51
37132;BME280;23035;50.032;21.978;2023-05-09T20:52:26;66296.06;;;10.71;50.68
37132;BME280;23035;50.032;21.978;2023-05-09T20:57:31;66312.78;;;10.89;50.95
37132;BME280;23035;50.032;21.978;2023-05-09T21:02:35;66301.97;;;10.76;51.03
37132;BME280;23035;50.032;21.978;2023-05-09T21:07:39;66304.72;;;10.81;50.42
37132;BME280;23035;50.032;21.978;2023-05-09T21:12:44;66258.53;;;10.35;52.53
37132;BME280;23035;50.032;21.978;2023-05-09T21:17:48;66169.44;;;9.48;55.23
37132;BME280;23035;50.032;21.978;2023-05-09T21:22:52;66217.25;;;9.96;54.59
37132;BME280;23035;50.032;21.978;2023-05-09T21:27:58;66203.22;;;9.80;55.21
37132;BME280;23035;50.032;21.978;2023-05-09T21:33:02;66167.38;;;9.48;58.00
37132;BME280;23035;50.032;21.978;2023-05-09T21:38:06;66167.47;;;9.51;58.53
37132;BME280;23035;50.032;21.978;2023-05-09T21:43:12;66149.69;;;9.32;60.09
37132;BME280;23035;50.032;21.978;2023-05-09T21:48:16;66183.38;;;9.61;58.67
37132;BME280;23035;50.032;21.978;2023-05-09T21:53:20;66220.97;;;9.99;58.72
37132;BME280;23035;50.032;21.978;2023-05-09T21:58:26;66198.03;;;9.80;58.56
37132;BME280;23035;50.032;21.978;2023-05-09T22:03:30;66181.03;;;9.69;59.74
37132;BME280;23035;50.032;21.978;2023-05-09T22:08:34;66250.56;;;10.30;62.91
37132;BME280;23035;50.032;21.978;2023-05-09T22:13:40;66149.81;;;9.34;64.59
37132;BME280;23035;50.032;21.978;2023-05-09T22:18:44;66207.06;;;9.86;63.64
37132;BME280;23035;50.032;21.978;2023-05-09T22:23:48;66045.88;;;8.36;69.68
37132;BME280;23035;50.032;21.978;2023-05-09T22:28:53;66157.22;;;9.39;67.52
37132;BME280;23035;50.032;21.978;2023-05-09T22:33:57;66040.44;;;8.28;72.76
37132;BME280;23035;50.032;21.978;2023-05-09T22:39:01;66049.56;;;8.37;74.38
37132;BME280;23035;50.032;21.978;2023-05-09T22:44:06;66046.44;;;8.36;74.47
37132;BME280;23035;50.032;21.978;2023-05-09T22:49:11;66013.75;;;8.05;75.11
37132;BME280;23035;50.032;21.978;2023-05-09T22:54:15;66073.72;;;8.62;72.83
37132;BME280;23035;50.032;21.978;2023-05-09T22:59:23;66076.94;;;8.65;72.84
37132;BME280;23035;50.032;21.978;2023-05-09T23:04:28;66075.16;;;8.58;72.90
37132;BME280;23035;50.032;21.978;2023-05-09T23:09:32;66028.13;;;8.16;74.97
37132;BME280;23035;50.032;21.978;2023-05-09T23:14:37;66072.13;;;8.60;73.21
37132;BME280;23035;50.032;21.978;2023-05-09T23:19:41;66063.81;;;8.45;74.25
37132;BME280;23035;50.032;21.978;2023-05-09T23:24:45;66120.69;;;9.02;71.69
37132;BME280;23035;50.032;21.978;2023-05-09T23:29:51;66087.56;;;8.73;72.25
37132;BME280;23035;50.032;21.978;2023-05-09T23:34:55;66108.91;;;8.90;71.38
37132;BME280;23035;50.032;21.978;2023-05-09T23:39:58;66078.03;;;8.66;71.69
37132;BME280;23035;50.032;21.978;2023-05-09T23:45:05;66079.00;;;8.65;74.16
37132;BME280;23035;50.032;21.978;2023-05-09T23:50:09;66073.28;;;8.64;72.93
37132;BME280;23035;50.032;21.978;2023-05-09T23:55:13;66095.06;;;8.80;71.58
